sensor_id;sensor_type;location;lat;lon;timestamp;P1;durP1;ratioP1;P2;durP2;ratioP2
7903;SDS011;3997;48.416;8.512;2023-04-08T00:00:34;2.97;;;2.78;;
7903;SDS011;3997;48.416;8.512;2023-04-08T00:03:01;2.90;;;2.70;;
7903;SDS011;3997;48.416;8.512;2023-04-08T00:05:27;2.72;;;2.63;;
7903;SDS011;3997;48.416;8.512;2023-04-08T00:07:54;3.25;;;3.05;;
7903;SDS011;3997;48.416;8.512;2023-04-08T00:10:20;3.00;;;2.80;;
7903;SDS011;3997;48.416;8.512;2023-04-08T00:12:47;3.20;;;3.00;;
7903;SDS011;3997;48.416;8.512;2023-04-08T00:15:15;2.92;;;2.72;;
7903;SDS011;3997;48.416;8.512;2023-04-08T00:17:41;3.33;;;3.03;;
7903;SDS011;3997;48.416;8.512;2023-04-08T00:20:09;3.13;;;2.92;;
7903;SDS011;3997;48.416;8.512;2023-04-08T00:22:36;3.45;;;3.20;;
7903;SDS011;3997;48.416;8.512;2023-04-08T00:25:02;3.67;;;3.35;;
7903;SDS011;3997;48.416;8.512;2023-04-08T00:27:30;3.47;;;3.22;;
7903;SDS011;3997;48.416;8.512;2023-04-08T00:29:57;3.10;;;2.92;;
7903;SDS011;3997;48.416;8.512;2023-04-08T00:32:25;4.10;;;3.80;;
7903;SDS011;3997;48.416;8.512;2023-04-08T00:34:52;4.03;;;3.72;;
7903;SDS011;3997;48.416;8.512;2023-04-08T00:37:18;3.50;;;3.30;;
7903;SDS011;3997;48.416;8.512;2023-04-08T00:39:45;4.10;;;3.78;;
7903;SDS011;3997;48.416;8.512;2023-04-08T00:42:11;4.13;;;3.72;;
7903;SDS011;3997;48.416;8.512;2023-04-08T00:44:38;3.53;;;3.33;;
7903;SDS011;3997;48.416;8.512;2023-04-08T00:47:04;3.97;;;3.60;;
7903;SDS011;3997;48.416;8.512;2023-04-08T00:49:32;3.83;;;3.53;;
7903;SDS011;3997;48.416;8.512;2023-04-08T00:51:59;3.72;;;3.42;;
7903;SDS011;3997;48.416;8.512;2023-04-08T00:54:25;3.78;;;3.47;;
7903;SDS011;3997;48.416;8.512;2023-04-08T00:56:52;3.90;;;3.60;;
7903;SDS011;3997;48.416;8.512;2023-04-08T00:59:18;3.97;;;3.67;;
7903;SDS011;3997;48.416;8.512;2023-04-08T01:01:47;3.75;;;3.45;;
7903;SDS011;3997;48.416;8.512;2023-04-08T01:04:18;4.45;;;4.15;;
7903;SDS011;3997;48.416;8.512;2023-04-08T01:06:50;3.67;;;3.42;;
7903;SDS011;3997;48.416;8.512;2023-04-08T01:09:20;4.03;;;3.72;;
7903;SDS011;3997;48.416;8.512;2023-04-08T01:11:48;4.18;;;3.83;;
7903;SDS011;3997;48.416;8.512;2023-04-08T01:14:16;4.60;;;4.20;;
7903;SDS011;3997;48.416;8.512;2023-04-08T01:16:45;4.60;;;4.20;;
7903;SDS011;3997;48.416;8.512;2023-04-08T01:19:14;3.85;;;3.55;;
7903;SDS011;3997;48.416;8.512;2023-04-08T01:21:42;4.00;;;3.70;;
7903;SDS011;3997;48.416;8.512;2023-04-08T01:24:12;5.00;;;4.03;;
7903;SDS011;3997;48.416;8.512;2023-04-08T01:26:44;4.10;;;3.67;;
7903;SDS011;3997;48.416;8.512;2023-04-08T01:29:11;3.88;;;3.58;;
7903;SDS011;3997;48.416;8.512;2023-04-08T01:31:39;4.28;;;3.97;;
7903;SDS011;3997;48.416;8.512;2023-04-08T01:34:07;2.60;;;2.40;;
7903;SDS011;3997;48.416;8.512;2023-04-08T01:36:34;2.72;;;2.60;;
7903;SDS011;3997;48.416;8.512;2023-04-08T01:39:01;3.13;;;2.83;;
7903;SDS011;3997;48.416;8.512;2023-04-08T01:41:29;2.40;;;2.30;;
7903;SDS011;3997;48.416;8.512;2023-04-08T01:43:58;3.33;;;3.13;;
7903;SDS011;3997;48.416;8.512;2023-04-08T01:46:24;3.58;;;3.30;;
7903;SDS011;3997;48.416;8.512;2023-04-08T01:48:52;4.40;;;4.10;;
7903;SDS011;3997;48.416;8.512;2023-04-08T01:51:19;4.53;;;4.15;;
7903;SDS011;3997;48.416;8.512;2023-04-08T01:53:47;4.75;;;4.35;;
7903;SDS011;3997;48.416;8.512;2023-04-08T01:56:13;4.57;;;4.28;;
7903;SDS011;3997;48.416;8.512;2023-04-08T01:58:41;4.60;;;4.10;;
7903;SDS011;3997;48.416;8.512;2023-04-08T02:01:10;4.40;;;3.75;;
7903;SDS011;3997;48.416;8.512;2023-04-08T02:03:37;3.35;;;3.15;;
7903;SDS011;3997;48.416;8.512;2023-04-08T02:06:05;3.70;;;3.40;;
7903;SDS011;3997;48.416;8.512;2023-04-08T02:08:32;3.42;;;3.22;;
7903;SDS011;3997;48.416;8.512;2023-04-08T02:10:59;3.85;;;3.55;;
7903;SDS011;3997;48.416;8.512;2023-04-08T02:13:25;4.28;;;3.80;;
7903;SDS011;3997;48.416;8.512;2023-04-08T02:15:52;4.38;;;4.05;;
7903;SDS011;3997;48.416;8.512;2023-04-08T02:18:24;4.50;;;4.10;;
7903;SDS011;3997;48.416;8.512;2023-04-08T02:20:52;3.90;;;3.60;;
7903;SDS011;3997;48.416;8.512;2023-04-08T02:23:23;4.45;;;4.05;;
7903;SDS011;3997;48.416;8.512;2023-04-08T02:25:50;4.65;;;4.25;;
7903;SDS011;3997;48.416;8.512;2023-04-08T02:28:18;4.50;;;4.10;;
7903;SDS011;3997;48.416;8.512;2023-04-08T02:30:46;4.60;;;4.20;;
7903;SDS011;3997;48.416;8.512;2023-04-08T02:33:13;4.38;;;4.07;;
7903;SDS011;3997;48.416;8.512;2023-04-08T02:35:42;5.28;;;4.82;;
7903;SDS011;3997;48.416;8.512;2023-04-08T02:38:09;5.25;;;4.75;;
7903;SDS011;3997;48.416;8.512;2023-04-08T02:40:36;5.25;;;4.75;;
7903;SDS011;3997;48.416;8.512;2023-04-08T02:43:03;5.40;;;4.93;;
7903;SDS011;3997;48.416;8.512;2023-04-08T02:45:30;5.00;;;4.60;;
7903;SDS011;3997;48.416;8.512;2023-04-08T02:47:57;5.28;;;4.78;;
7903;SDS011;3997;48.416;8.512;2023-04-08T02:50:24;5.13;;;4.72;;
7903;SDS011;3997;48.416;8.512;2023-04-08T02:52:52;5.35;;;4.85;;
7903;SDS011;3997;48.416;8.512;2023-04-08T02:55:18;5.43;;;4.93;;
7903;SDS011;3997;48.416;8.512;2023-04-08T02:57:45;4.75;;;4.35;;
7903;SDS011;3997;48.416;8.512;2023-04-08T03:00:12;5.05;;;4.55;;
7903;SDS011;3997;48.416;8.512;2023-04-08T03:02:39;5.57;;;5.00;;
7903;SDS011;3997;48.416;8.512;2023-04-08T03:05:06;5.07;;;4.68;;
7903;SDS011;3997;48.416;8.512;2023-04-08T03:07:33;5.35;;;4.90;;
7903;SDS011;3997;48.416;8.512;2023-04-08T03:10:01;5.25;;;4.75;;
7903;SDS011;3997;48.416;8.512;2023-04-08T03:12:28;4.97;;;4.53;;
7903;SDS011;3997;48.416;8.512;2023-04-08T03:14:55;5.30;;;4.80;;
7903;SDS011;3997;48.416;8.512;2023-04-08T03:17:21;5.03;;;4.63;;
7903;SDS011;3997;48.416;8.512;2023-04-08T03:19:48;5.28;;;4.80;;
7903;SDS011;3997;48.416;8.512;2023-04-08T03:22:14;6.03;;;5.43;;
7903;SDS011;3997;48.416;8.512;2023-04-08T03:24:41;5.53;;;4.95;;
7903;SDS011;3997;48.416;8.512;2023-04-08T03:27:09;5.25;;;4.75;;
7903;SDS011;3997;48.416;8.512;2023-04-08T03:29:36;5.63;;;4.85;;
7903;SDS011;3997;48.416;8.512;2023-04-08T03:32:03;4.95;;;4.30;;
7903;SDS011;3997;48.416;8.512;2023-04-08T03:34:29;5.00;;;4.60;;
7903;SDS011;3997;48.416;8.512;2023-04-08T03:36:56;5.03;;;4.63;;
7903;SDS011;3997;48.416;8.512;2023-04-08T03:39:22;5.30;;;4.80;;
7903;SDS011;3997;48.416;8.512;2023-04-08T03:41:48;5.03;;;4.53;;
7903;SDS011;3997;48.416;8.512;2023-04-08T03:44:16;4.70;;;4.30;;
7903;SDS011;3997;48.416;8.512;2023-04-08T03:46:43;5.25;;;4.75;;
7903;SDS011;3997;48.416;8.512;2023-04-08T03:49:09;4.47;;;4.18;;
7903;SDS011;3997;48.416;8.512;2023-04-08T03:51:35;4.00;;;3.60;;
7903;SDS011;3997;48.416;8.512;2023-04-08T03:54:02;5.10;;;4.60;;
7903;SDS011;3997;48.416;8.512;2023-04-08T03:56:28;4.78;;;4.38;;
7903;SDS011;3997;48.416;8.512;2023-04-08T03:58:55;5.28;;;4.55;;
7903;SDS011;3997;48.416;8.512;2023-04-08T04:01:23;4.47;;;4.07;;
7903;SDS011;3997;48.416;8.512;2023-04-08T04:03:49;7.35;;;4.60;;
7903;SDS011;3997;48.416;8.512;2023-04-08T04:06:15;4.20;;;3.78;;
7903;SDS011;3997;48.416;8.512;2023-04-08T04:08:42;5.03;;;4.57;;
7903;SDS011;3997;48.416;8.512;2023-04-08T04:11:08;5.07;;;4.40;;
7903;SDS011;3997;48.416;8.512;2023-04-08T04:13:35;6.22;;;4.22;;
7903;SDS011;3997;48.416;8.512;2023-04-08T04:16:01;4.65;;;3.90;;
7903;SDS011;3997;48.416;8.512;2023-04-08T04:18:29;5.30;;;4.63;;
7903;SDS011;3997;48.416;8.512;2023-04-08T04:20:55;6.72;;;4.10;;
7903;SDS011;3997;48.416;8.512;2023-04-08T04:23:22;5.75;;;5.10;;
7903;SDS011;3997;48.416;8.512;2023-04-08T04:25:49;4.60;;;4.13;;
7903;SDS011;3997;48.416;8.512;2023-04-08T04:28:16;4.82;;;4.32;;
7903;SDS011;3997;48.416;8.512;2023-04-08T04:30:42;4.75;;;4.28;;
7903;SDS011;3997;48.416;8.512;2023-04-08T04:33:09;5.05;;;4.50;;
7903;SDS011;3997;48.416;8.512;2023-04-08T04:35:38;4.70;;;4.30;;
7903;SDS011;3997;48.416;8.512;2023-04-08T04:38:04;4.70;;;4.30;;
7903;SDS011;3997;48.416;8.512;2023-04-08T04:40:34;4.80;;;4.40;;
7903;SDS011;3997;48.416;8.512;2023-04-08T04:43:01;4.93;;;4.03;;
7903;SDS011;3997;48.416;8.512;2023-04-08T04:45:27;4.35;;;3.95;;
7903;SDS011;3997;48.416;8.512;2023-04-08T04:47:53;4.00;;;3.70;;
7903;SDS011;3997;48.416;8.512;2023-04-08T04:50:20;4.50;;;4.10;;
7903;SDS011;3997;48.416;8.512;2023-04-08T04:52:48;4.38;;;4.00;;
7903;SDS011;3997;48.416;8.512;2023-04-08T04:55:14;3.90;;;3.60;;
7903;SDS011;3997;48.416;8.512;2023-04-08T04:57:41;4.50;;;4.10;;
7903;SDS011;3997;48.416;8.512;2023-04-08T05:00:08;4.30;;;3.90;;
7903;SDS011;3997;48.416;8.512;2023-04-08T05:02:35;5.25;;;4.38;;
7903;SDS011;3997;48.416;8.512;2023-04-08T05:05:02;4.20;;;3.80;;
7903;SDS011;3997;48.416;8.512;2023-04-08T05:07:28;4.50;;;4.10;;
7903;SDS011;3997;48.416;8.512;2023-04-08T05:09:56;5.40;;;4.45;;
7903;SDS011;3997;48.416;8.512;2023-04-08T05:12:22;4.60;;;4.07;;
7903;SDS011;3997;48.416;8.512;2023-04-08T05:14:49;5.32;;;3.95;;
7903;SDS011;3997;48.416;8.512;2023-04-08T05:17:16;5.30;;;4.80;;
7903;SDS011;3997;48.416;8.512;2023-04-08T05:19:42;5.80;;;5.25;;
7903;SDS011;3997;48.416;8.512;2023-04-08T05:22:09;4.25;;;3.80;;
7903;SDS011;3997;48.416;8.512;2023-04-08T05:24:35;4.28;;;3.97;;
7903;SDS011;3997;48.416;8.512;2023-04-08T05:27:03;11.90;;;4.32;;
7903;SDS011;3997;48.416;8.512;2023-04-08T05:29:29;5.95;;;5.45;;
7903;SDS011;3997;48.416;8.512;2023-04-08T05:31:56;5.75;;;5.22;;
7903;SDS011;3997;48.416;8.512;2023-04-08T05:34:22;5.63;;;5.13;;
7903;SDS011;3997;48.416;8.512;2023-04-08T05:36:49;5.70;;;5.20;;
7903;SDS011;3997;48.416;8.512;2023-04-08T05:39:16;5.13;;;4.72;;
7903;SDS011;3997;48.416;8.512;2023-04-08T05:41:43;5.57;;;5.07;;
7903;SDS011;3997;48.416;8.512;2023-04-08T05:44:11;5.63;;;5.13;;
7903;SDS011;3997;48.416;8.512;2023-04-08T05:46:37;5.60;;;5.03;;
7903;SDS011;3997;48.416;8.512;2023-04-08T05:49:04;5.88;;;5.28;;
7903;SDS011;3997;48.416;8.512;2023-04-08T05:51:30;6.45;;;5.75;;
7903;SDS011;3997;48.416;8.512;2023-04-08T05:53:57;6.97;;;5.88;;
7903;SDS011;3997;48.416;8.512;2023-04-08T05:56:23;6.70;;;6.03;;
7903;SDS011;3997;48.416;8.512;2023-04-08T05:58:50;5.78;;;5.28;;
7903;SDS011;3997;48.416;8.512;2023-04-08T06:01:17;6.60;;;6.00;;
7903;SDS011;3997;48.416;8.512;2023-04-08T06:03:44;5.65;;;5.10;;
7903;SDS011;3997;48.416;8.512;2023-04-08T06:06:10;6.13;;;5.50;;
7903;SDS011;3997;48.416;8.512;2023-04-08T06:08:37;6.13;;;5.53;;
7903;SDS011;3997;48.416;8.512;2023-04-08T06:11:03;6.97;;;5.82;;
7903;SDS011;3997;48.416;8.512;2023-04-08T06:13:30;6.20;;;5.68;;
7903;SDS011;3997;48.416;8.512;2023-04-08T06:15:57;5.72;;;5.22;;
7903;SDS011;3997;48.416;8.512;2023-04-08T06:18:25;6.80;;;6.05;;
7903;SDS011;3997;48.416;8.512;2023-04-08T06:20:52;6.35;;;5.75;;
7903;SDS011;3997;48.416;8.512;2023-04-08T06:23:18;5.68;;;5.10;;
7903;SDS011;3997;48.416;8.512;2023-04-08T06:25:45;4.50;;;4.10;;
7903;SDS011;3997;48.416;8.512;2023-04-08T06:28:11;4.20;;;3.88;;
7903;SDS011;3997;48.416;8.512;2023-04-08T06:30:38;4.70;;;4.30;;
7903;SDS011;3997;48.416;8.512;2023-04-08T06:33:04;5.00;;;4.50;;
7903;SDS011;3997;48.416;8.512;2023-04-08T06:35:32;5.10;;;4.60;;
7903;SDS011;3997;48.416;8.512;2023-04-08T06:37:59;6.47;;;5.78;;
7903;SDS011;3997;48.416;8.512;2023-04-08T06:40:26;6.85;;;6.07;;
7903;SDS011;3997;48.416;8.512;2023-04-08T06:42:53;6.75;;;6.10;;
7903;SDS011;3997;48.416;8.512;2023-04-08T06:45:19;6.72;;;6.03;;
7903;SDS011;3997;48.416;8.512;2023-04-08T06:47:46;7.40;;;6.68;;
7903;SDS011;3997;48.416;8.512;2023-04-08T06:50:12;7.05;;;6.30;;
7903;SDS011;3997;48.416;8.512;2023-04-08T06:52:40;6.20;;;5.70;;
7903;SDS011;3997;48.416;8.512;2023-04-08T06:55:07;6.30;;;5.70;;
7903;SDS011;3997;48.416;8.512;2023-04-08T06:57:33;6.43;;;5.82;;
7903;SDS011;3997;48.416;8.512;2023-04-08T07:00:00;6.38;;;5.78;;
7903;SDS011;3997;48.416;8.512;2023-04-08T07:02:26;7.60;;;6.60;;
7903;SDS011;3997;48.416;8.512;2023-04-08T07:04:52;7.03;;;5.97;;
7903;SDS011;3997;48.416;8.512;2023-04-08T07:07:19;4.63;;;4.22;;
7903;SDS011;3997;48.416;8.512;2023-04-08T07:09:48;6.53;;;5.70;;
7903;SDS011;3997;48.416;8.512;2023-04-08T07:12:15;5.32;;;4.80;;
7903;SDS011;3997;48.416;8.512;2023-04-08T07:14:41;6.72;;;6.03;;
7903;SDS011;3997;48.416;8.512;2023-04-08T07:17:08;6.72;;;6.03;;
7903;SDS011;3997;48.416;8.512;2023-04-08T07:19:34;7.60;;;6.05;;
7903;SDS011;3997;48.416;8.512;2023-04-08T07:22:01;5.78;;;5.28;;
7903;SDS011;3997;48.416;8.512;2023-04-08T07:24:28;6.97;;;6.22;;
7903;SDS011;3997;48.416;8.512;2023-04-08T07:26:55;7.35;;;6.65;;
7903;SDS011;3997;48.416;8.512;2023-04-08T07:29:22;6.80;;;6.20;;
7903;SDS011;3997;48.416;8.512;2023-04-08T07:31:48;6.10;;;5.50;;
7903;SDS011;3997;48.416;8.512;2023-04-08T07:34:15;6.40;;;5.80;;
7903;SDS011;3997;48.416;8.512;2023-04-08T07:36:42;5.88;;;5.28;;
7903;SDS011;3997;48.416;8.512;2023-04-08T07:39:08;5.93;;;5.43;;
7903;SDS011;3997;48.416;8.512;2023-04-08T07:41:35;5.57;;;5.07;;
7903;SDS011;3997;48.416;8.512;2023-04-08T07:44:02;6.00;;;5.28;;
7903;SDS011;3997;48.416;8.512;2023-04-08T07:46:29;6.95;;;6.20;;
7903;SDS011;3997;48.416;8.512;2023-04-08T07:48:56;12.95;;;9.90;;
7903;SDS011;3997;48.416;8.512;2023-04-08T07:51:22;7.85;;;7.07;;
7903;SDS011;3997;48.416;8.512;2023-04-08T07:53:49;6.13;;;5.60;;
7903;SDS011;3997;48.416;8.512;2023-04-08T07:56:15;6.40;;;5.60;;
7903;SDS011;3997;48.416;8.512;2023-04-08T07:58:43;8.23;;;6.85;;
7903;SDS011;3997;48.416;8.512;2023-04-08T08:01:17;10.30;;;8.20;;
7903;SDS011;3997;48.416;8.512;2023-04-08T08:03:45;15.85;;;10.93;;
7903;SDS011;3997;48.416;8.512;2023-04-08T08:06:11;9.95;;;8.43;;
7903;SDS011;3997;48.416;8.512;2023-04-08T08:08:38;7.30;;;6.55;;
7903;SDS011;3997;48.416;8.512;2023-04-08T08:11:04;6.53;;;5.93;;
7903;SDS011;3997;48.416;8.512;2023-04-08T08:13:31;7.63;;;6.78;;
7903;SDS011;3997;48.416;8.512;2023-04-08T08:15:58;6.95;;;6.20;;
7903;SDS011;3997;48.416;8.512;2023-04-08T08:18:26;6.82;;;6.22;;
7903;SDS011;3997;48.416;8.512;2023-04-08T08:20:52;6.47;;;5.88;;
7903;SDS011;3997;48.416;8.512;2023-04-08T08:23:18;6.40;;;5.80;;
7903;SDS011;3997;48.416;8.512;2023-04-08T08:25:45;7.50;;;6.68;;
7903;SDS011;3997;48.416;8.512;2023-04-08T08:28:11;6.93;;;6.22;;
7903;SDS011;3997;48.416;8.512;2023-04-08T08:30:38;6.60;;;6.00;;
7903;SDS011;3997;48.416;8.512;2023-04-08T08:33:04;5.85;;;5.28;;
7903;SDS011;3997;48.416;8.512;2023-04-08T08:35:32;5.68;;;5.07;;
7903;SDS011;3997;48.416;8.512;2023-04-08T08:37:58;4.93;;;4.53;;
7903;SDS011;3997;48.416;8.512;2023-04-08T08:40:25;4.50;;;4.10;;
7903;SDS011;3997;48.416;8.512;2023-04-08T08:42:51;5.35;;;4.55;;
7903;SDS011;3997;48.416;8.512;2023-04-08T08:45:18;5.10;;;4.60;;
7903;SDS011;3997;48.416;8.512;2023-04-08T08:47:45;5.15;;;4.63;;
7903;SDS011;3997;48.416;8.512;2023-04-08T08:50:11;4.57;;;4.18;;
7903;SDS011;3997;48.416;8.512;2023-04-08T08:52:39;4.63;;;4.22;;
7903;SDS011;3997;48.416;8.512;2023-04-08T08:55:12;5.65;;;5.15;;
7903;SDS011;3997;48.416;8.512;2023-04-08T08:57:39;5.70;;;5.20;;
7903;SDS011;3997;48.416;8.512;2023-04-08T09:00:06;5.78;;;5.28;;
7903;SDS011;3997;48.416;8.512;2023-04-08T09:02:33;5.15;;;4.75;;
7903;SDS011;3997;48.416;8.512;2023-04-08T09:05:00;6.10;;;5.60;;
7903;SDS011;3997;48.416;8.512;2023-04-08T09:07:27;8.48;;;7.15;;
7903;SDS011;3997;48.416;8.512;2023-04-08T09:09:55;5.05;;;4.65;;
7903;SDS011;3997;48.416;8.512;2023-04-08T09:12:21;5.35;;;4.85;;
7903;SDS011;3997;48.416;8.512;2023-04-08T09:14:48;29.80;;;21.50;;
7903;SDS011;3997;48.416;8.512;2023-04-08T09:17:14;10.30;;;9.30;;
7903;SDS011;3997;48.416;8.512;2023-04-08T09:19:55;10.07;;;8.48;;
7903;SDS011;3997;48.416;8.512;2023-04-08T09:22:30;6.15;;;4.72;;
7903;SDS011;3997;48.416;8.512;2023-04-08T09:24:58;25.50;;;20.27;;
7903;SDS011;3997;48.416;8.512;2023-04-08T09:27:32;13.15;;;11.07;;
7903;SDS011;3997;48.416;8.512;2023-04-08T09:30:11;6.88;;;6.07;;
7903;SDS011;3997;48.416;8.512;2023-04-08T09:32:45;8.35;;;7.20;;
7903;SDS011;3997;48.416;8.512;2023-04-08T09:35:12;6.43;;;5.53;;
7903;SDS011;3997;48.416;8.512;2023-04-08T09:37:40;6.13;;;5.18;;
7903;SDS011;3997;48.416;8.512;2023-04-08T09:40:09;6.63;;;5.80;;
7903;SDS011;3997;48.416;8.512;2023-04-08T09:42:35;8.98;;;8.20;;
7903;SDS011;3997;48.416;8.512;2023-04-08T09:45:05;9.10;;;8.27;;
7903;SDS011;3997;48.416;8.512;2023-04-08T09:47:32;7.03;;;6.32;;
7903;SDS011;3997;48.416;8.512;2023-04-08T09:50:02;6.72;;;6.03;;
7903;SDS011;3997;48.416;8.512;2023-04-08T09:52:33;7.20;;;6.47;;
7903;SDS011;3997;48.416;8.512;2023-04-08T09:55:07;8.65;;;7.75;;
7903;SDS011;3997;48.416;8.512;2023-04-08T09:57:39;7.95;;;7.25;;
7903;SDS011;3997;48.416;8.512;2023-04-08T10:00:07;7.68;;;6.95;;
7903;SDS011;3997;48.416;8.512;2023-04-08T10:02:37;6.68;;;6.07;;
7903;SDS011;3997;48.416;8.512;2023-04-08T10:05:06;7.38;;;6.60;;
7903;SDS011;3997;48.416;8.512;2023-04-08T10:07:33;8.43;;;7.10;;
7903;SDS011;3997;48.416;8.512;2023-04-08T10:10:00;9.38;;;8.38;;
7903;SDS011;3997;48.416;8.512;2023-04-08T10:12:27;10.38;;;9.18;;
7903;SDS011;3997;48.416;8.512;2023-04-08T10:17:40;8.00;;;7.20;;
7903;SDS011;3997;48.416;8.512;2023-04-08T10:20:07;8.68;;;6.82;;
7903;SDS011;3997;48.416;8.512;2023-04-08T10:22:53;9.68;;;8.00;;
7903;SDS011;3997;48.416;8.512;2023-04-08T10:25:30;10.63;;;8.32;;
7903;SDS011;3997;48.416;8.512;2023-04-08T10:27:57;10.90;;;9.10;;
7903;SDS011;3997;48.416;8.512;2023-04-08T10:30:39;11.00;;;9.90;;
7903;SDS011;3997;48.416;8.512;2023-04-08T10:33:10;10.93;;;9.75;;
7903;SDS011;3997;48.416;8.512;2023-04-08T10:35:37;10.93;;;9.50;;
7903;SDS011;3997;48.416;8.512;2023-04-08T10:38:06;10.85;;;9.57;;
7903;SDS011;3997;48.416;8.512;2023-04-08T10:40:34;12.75;;;9.65;;
7903;SDS011;3997;48.416;8.512;2023-04-08T10:43:01;12.38;;;10.05;;
7903;SDS011;3997;48.416;8.512;2023-04-08T10:45:28;9.70;;;8.70;;
7903;SDS011;3997;48.416;8.512;2023-04-08T10:47:54;9.65;;;8.73;;
7903;SDS011;3997;48.416;8.512;2023-04-08T10:50:22;10.07;;;9.07;;
7903;SDS011;3997;48.416;8.512;2023-04-08T10:52:49;10.15;;;8.80;;
7903;SDS011;3997;48.416;8.512;2023-04-08T10:55:16;9.30;;;8.40;;
7903;SDS011;3997;48.416;8.512;2023-04-08T10:57:47;10.73;;;9.63;;
7903;SDS011;3997;48.416;8.512;2023-04-08T11:00:16;9.63;;;8.65;;
7903;SDS011;3997;48.416;8.512;2023-04-08T11:02:43;8.90;;;8.00;;
7903;SDS011;3997;48.416;8.512;2023-04-08T11:05:09;10.40;;;9.00;;
7903;SDS011;3997;48.416;8.512;2023-04-08T11:07:40;9.88;;;8.85;;
7903;SDS011;3997;48.416;8.512;2023-04-08T11:10:07;9.98;;;8.98;;
7903;SDS011;3997;48.416;8.512;2023-04-08T11:12:33;9.85;;;8.95;;
7903;SDS011;3997;48.416;8.512;2023-04-08T11:15:00;9.90;;;8.85;;
7903;SDS011;3997;48.416;8.512;2023-04-08T11:17:27;10.35;;;9.27;;
7903;SDS011;3997;48.416;8.512;2023-04-08T11:19:54;9.80;;;8.90;;
7903;SDS011;3997;48.416;8.512;2023-04-08T11:22:20;9.40;;;8.35;;
7903;SDS011;3997;48.416;8.512;2023-04-08T11:24:49;10.60;;;9.50;;
7903;SDS011;3997;48.416;8.512;2023-04-08T11:27:16;9.52;;;8.50;;
7903;SDS011;3997;48.416;8.512;2023-04-08T11:29:42;9.18;;;8.27;;
7903;SDS011;3997;48.416;8.512;2023-04-08T11:32:09;9.75;;;8.75;;
7903;SDS011;3997;48.416;8.512;2023-04-08T11:34:38;9.20;;;8.35;;
7903;SDS011;3997;48.416;8.512;2023-04-08T11:37:04;8.77;;;7.97;;
7903;SDS011;3997;48.416;8.512;2023-04-08T11:39:31;9.70;;;8.70;;
7903;SDS011;3997;48.416;8.512;2023-04-08T11:41:58;9.85;;;8.95;;
7903;SDS011;3997;48.416;8.512;2023-04-08T11:44:29;9.68;;;8.77;;
7903;SDS011;3997;48.416;8.512;2023-04-08T11:46:55;10.20;;;8.65;;
7903;SDS011;3997;48.416;8.512;2023-04-08T11:49:22;8.88;;;7.97;;
7903;SDS011;3997;48.416;8.512;2023-04-08T11:51:53;8.95;;;8.07;;
7903;SDS011;3997;48.416;8.512;2023-04-08T11:54:26;9.25;;;8.35;;
7903;SDS011;3997;48.416;8.512;2023-04-08T11:56:53;9.80;;;8.93;;
7903;SDS011;3997;48.416;8.512;2023-04-08T11:59:21;11.20;;;10.05;;
7903;SDS011;3997;48.416;8.512;2023-04-08T12:01:47;11.13;;;10.13;;
7903;SDS011;3997;48.416;8.512;2023-04-08T12:04:14;9.55;;;8.70;;
7903;SDS011;3997;48.416;8.512;2023-04-08T12:06:40;9.52;;;8.63;;
7903;SDS011;3997;48.416;8.512;2023-04-08T12:09:10;9.43;;;8.52;;
7903;SDS011;3997;48.416;8.512;2023-04-08T12:11:37;8.63;;;7.82;;
7903;SDS011;3997;48.416;8.512;2023-04-08T12:14:03;9.43;;;8.50;;
7903;SDS011;3997;48.416;8.512;2023-04-08T12:16:31;9.25;;;8.45;;
7903;SDS011;3997;48.416;8.512;2023-04-08T12:18:57;9.98;;;8.98;;
7903;SDS011;3997;48.416;8.512;2023-04-08T12:21:24;9.65;;;8.75;;
7903;SDS011;3997;48.416;8.512;2023-04-08T12:23:51;8.90;;;8.10;;
7903;SDS011;3997;48.416;8.512;2023-04-08T12:26:18;8.13;;;7.43;;
7903;SDS011;3997;48.416;8.512;2023-04-08T12:28:45;9.13;;;8.23;;
7903;SDS011;3997;48.416;8.512;2023-04-08T12:31:11;9.30;;;7.70;;
7903;SDS011;3997;48.416;8.512;2023-04-08T12:33:39;8.05;;;7.35;;
7903;SDS011;3997;48.416;8.512;2023-04-08T12:36:05;8.27;;;7.53;;
7903;SDS011;3997;48.416;8.512;2023-04-08T12:38:32;8.65;;;7.85;;
7903;SDS011;3997;48.416;8.512;2023-04-08T12:40:58;8.82;;;7.88;;
7903;SDS011;3997;48.416;8.512;2023-04-08T12:43:25;8.13;;;7.43;;
7903;SDS011;3997;48.416;8.512;2023-04-08T12:45:51;9.38;;;8.02;;
7903;SDS011;3997;48.416;8.512;2023-04-08T12:48:17;8.82;;;8.00;;
7903;SDS011;3997;48.416;8.512;2023-04-08T12:50:45;8.82;;;7.93;;
7903;SDS011;3997;48.416;8.512;2023-04-08T12:53:12;8.70;;;7.90;;
7903;SDS011;3997;48.416;8.512;2023-04-08T12:55:38;9.88;;;7.18;;
7903;SDS011;3997;48.416;8.512;2023-04-08T12:58:05;9.23;;;8.32;;
7903;SDS011;3997;48.416;8.512;2023-04-08T13:00:31;8.38;;;7.57;;
7903;SDS011;3997;48.416;8.512;2023-04-08T13:02:58;8.13;;;7.43;;
7903;SDS011;3997;48.416;8.512;2023-04-08T13:05:24;7.80;;;7.00;;
7903;SDS011;3997;48.416;8.512;2023-04-08T13:07:52;7.95;;;7.25;;
7903;SDS011;3997;48.416;8.512;2023-04-08T13:10:19;8.27;;;7.57;;
7903;SDS011;3997;48.416;8.512;2023-04-08T13:12:45;7.78;;;6.97;;
7903;SDS011;3997;48.416;8.512;2023-04-08T13:15:11;7.22;;;6.63;;
7903;SDS011;3997;48.416;8.512;2023-04-08T13:17:38;8.20;;;6.68;;
7903;SDS011;3997;48.416;8.512;2023-04-08T13:20:05;6.70;;;6.10;;
7903;SDS011;3997;48.416;8.512;2023-04-08T13:22:33;7.57;;;6.95;;
7903;SDS011;3997;48.416;8.512;2023-04-08T13:25:01;6.90;;;6.30;;
7903;SDS011;3997;48.416;8.512;2023-04-08T13:27:30;6.93;;;6.32;;
7903;SDS011;3997;48.416;8.512;2023-04-08T13:29:56;6.63;;;6.03;;
7903;SDS011;3997;48.416;8.512;2023-04-08T13:32:23;6.72;;;6.13;;
7903;SDS011;3997;48.416;8.512;2023-04-08T13:34:49;6.68;;;6.10;;
7903;SDS011;3997;48.416;8.512;2023-04-08T13:37:16;6.72;;;6.13;;
7903;SDS011;3997;48.416;8.512;2023-04-08T13:39:42;7.05;;;6.45;;
7903;SDS011;3997;48.416;8.512;2023-04-08T13:42:10;6.60;;;6.05;;
7903;SDS011;3997;48.416;8.512;2023-04-08T13:44:36;6.95;;;6.25;;
7903;SDS011;3997;48.416;8.512;2023-04-08T13:47:03;6.72;;;6.13;;
7903;SDS011;3997;48.416;8.512;2023-04-08T13:49:29;6.53;;;5.93;;
7903;SDS011;3997;48.416;8.512;2023-04-08T13:51:56;7.05;;;6.45;;
7903;SDS011;3997;48.416;8.512;2023-04-08T13:54:22;5.60;;;5.10;;
7903;SDS011;3997;48.416;8.512;2023-04-08T13:56:48;7.43;;;6.82;;
7903;SDS011;3997;48.416;8.512;2023-04-08T13:59:16;7.85;;;7.15;;
7903;SDS011;3997;48.416;8.512;2023-04-08T14:01:43;7.68;;;6.97;;
7903;SDS011;3997;48.416;8.512;2023-04-08T14:04:09;7.75;;;7.05;;
7903;SDS011;3997;48.416;8.512;2023-04-08T14:06:36;7.95;;;7.20;;
7903;SDS011;3997;48.416;8.512;2023-04-08T14:09:02;8.63;;;7.90;;
7903;SDS011;3997;48.416;8.512;2023-04-08T14:11:29;9.15;;;8.35;;
7903;SDS011;3997;48.416;8.512;2023-04-08T14:13:55;9.10;;;8.30;;
7903;SDS011;3997;48.416;8.512;2023-04-08T14:16:23;9.70;;;8.80;;
7903;SDS011;3997;48.416;8.512;2023-04-08T14:18:49;9.57;;;8.77;;
7903;SDS011;3997;48.416;8.512;2023-04-08T14:21:16;9.65;;;8.75;;
7903;SDS011;3997;48.416;8.512;2023-04-08T14:23:42;9.90;;;8.88;;
7903;SDS011;3997;48.416;8.512;2023-04-08T14:26:09;9.00;;;8.20;;
7903;SDS011;3997;48.416;8.512;2023-04-08T14:28:35;8.43;;;7.72;;
7903;SDS011;3997;48.416;8.512;2023-04-08T14:31:02;8.68;;;7.93;;
7903;SDS011;3997;48.416;8.512;2023-04-08T14:33:30;8.55;;;7.75;;
7903;SDS011;3997;48.416;8.512;2023-04-08T14:35:57;9.35;;;8.38;;
7903;SDS011;3997;48.416;8.512;2023-04-08T14:38:23;8.43;;;7.60;;
7903;SDS011;3997;48.416;8.512;2023-04-08T14:40:50;9.65;;;8.75;;
7903;SDS011;3997;48.416;8.512;2023-04-08T14:43:16;9.68;;;8.85;;
7903;SDS011;3997;48.416;8.512;2023-04-08T14:45:43;10.15;;;9.23;;
7903;SDS011;3997;48.416;8.512;2023-04-08T14:48:10;8.93;;;8.13;;
7903;SDS011;3997;48.416;8.512;2023-04-08T14:50:37;10.20;;;9.10;;
7903;SDS011;3997;48.416;8.512;2023-04-08T14:53:04;10.25;;;9.30;;
7903;SDS011;3997;48.416;8.512;2023-04-08T14:55:30;10.07;;;9.15;;
7903;SDS011;3997;48.416;8.512;2023-04-08T14:57:57;11.30;;;9.32;;
7903;SDS011;3997;48.416;8.512;2023-04-08T15:00:23;10.50;;;9.60;;
7903;SDS011;3997;48.416;8.512;2023-04-08T15:02:50;10.40;;;9.43;;
7903;SDS011;3997;48.416;8.512;2023-04-08T15:05:16;10.15;;;9.15;;
7903;SDS011;3997;48.416;8.512;2023-04-08T15:07:44;9.82;;;9.00;;
7903;SDS011;3997;48.416;8.512;2023-04-08T15:10:11;10.40;;;9.50;;
7903;SDS011;3997;48.416;8.512;2023-04-08T15:12:38;10.85;;;9.85;;
7903;SDS011;3997;48.416;8.512;2023-04-08T15:15:05;10.40;;;9.27;;